createdAt,value
2023-03-17T00:01:54.151Z,1.00
2023-03-17T00:04:24.016Z,1.00
2023-03-17T00:06:51.696Z,1.00
2023-03-17T00:09:19.891Z,1.00
2023-03-17T00:11:47.381Z,1.00
2023-03-17T00:14:14.290Z,1.00
2023-03-17T00:16:51.236Z,1.00
2023-03-17T00:19:31.152Z,1.00
2023-03-17T00:21:59.966Z,1.00
2023-03-17T00:24:27.404Z,1.00
2023-03-17T00:26:54.195Z,1.00
2023-03-17T00:29:21.004Z,1.00
2023-03-17T00:31:48.133Z,1.00
2023-03-17T00:34:18.396Z,1.00
2023-03-17T00:36:50.681Z,1.00
2023-03-17T00:39:18.493Z,1.00
2023-03-17T00:44:12.584Z,1.00
2023-03-17T00:46:41.372Z,1.00
2023-03-17T00:49:23.410Z,1.00
2023-03-17T00:51:51.180Z,1.00
2023-03-17T00:54:20.722Z,1.00
2023-03-17T00:56:49.663Z,1.00
2023-03-17T00:59:27.489Z,1.00
2023-03-17T01:01:55.355Z,1.00
2023-03-17T01:04:22.745Z,1.00
2023-03-17T01:06:50.443Z,1.00
2023-03-17T01:09:24.180Z,1.00
2023-03-17T01:11:51.023Z,1.00
2023-03-17T01:14:18.072Z,1.00
2023-03-17T01:16:45.552Z,1.00
2023-03-17T01:19:13.615Z,1.00
2023-03-17T01:21:41.508Z,1.00
2023-03-17T01:24:09.581Z,1.00
2023-03-17T01:26:36.656Z,1.00
2023-03-17T01:29:04.800Z,1.00
2023-03-17T01:31:31.641Z,1.00
2023-03-17T01:33:58.705Z,1.00
2023-03-17T01:36:25.715Z,1.00
2023-03-17T01:38:52.713Z,1.00
2023-03-17T01:41:20.780Z,1.00
2023-03-17T01:43:47.844Z,1.00
2023-03-17T01:46:27.606Z,1.00
2023-03-17T01:49:09.567Z,1.00
2023-03-17T01:51:42.900Z,1.00
2023-03-17T01:54:17.437Z,1.00
2023-03-17T01:56:47.430Z,1.00
2023-03-17T01:59:25.452Z,1.00
2023-03-17T02:01:57.281Z,1.00
2023-03-17T02:04:26.767Z,1.00
2023-03-17T02:07:00.948Z,1.00
2023-03-17T02:09:28.429Z,1.00
2023-03-17T02:11:56.337Z,1.00
2023-03-17T02:14:23.740Z,1.00
2023-03-17T02:16:50.797Z,1.00
2023-03-17T02:19:17.736Z,1.00
2023-03-17T02:21:49.434Z,1.00
2023-03-17T02:24:26.416Z,1.00
2023-03-17T02:26:56.000Z,1.00
2023-03-17T02:29:23.427Z,1.00
2023-03-17T02:31:50.995Z,1.00
2023-03-17T02:34:17.908Z,1.00
2023-03-17T02:36:44.933Z,1.00
2023-03-17T02:39:12.230Z,1.00
2023-03-17T02:41:39.031Z,1.00
2023-03-17T02:44:05.858Z,1.00
2023-03-17T02:46:32.683Z,1.00
2023-03-17T02:49:02.119Z,1.00
2023-03-17T02:51:29.180Z,1.00
2023-03-17T02:53:56.053Z,1.00
2023-03-17T02:56:22.876Z,1.00
2023-03-17T02:58:49.692Z,1.00
2023-03-17T03:01:16.644Z,1.00
2023-03-17T03:03:43.448Z,1.00
2023-03-17T03:06:10.192Z,1.00
2023-03-17T03:08:37.030Z,1.00
2023-03-17T03:11:05.014Z,1.00
2023-03-17T03:13:32.160Z,1.00
2023-03-17T03:15:58.960Z,1.30
2023-03-17T03:18:26.154Z,4.00
2023-03-17T03:20:53.013Z,7.10
2023-03-17T03:23:19.904Z,8.20
2023-03-17T03:25:46.786Z,12.80
2023-03-17T03:28:14.013Z,17.40
2023-03-17T03:30:41.623Z,19.90
2023-03-17T03:33:13.327Z,20.50
2023-03-17T03:35:41.118Z,23.10
2023-03-17T03:38:08.086Z,23.60
2023-03-17T03:40:36.013Z,24.10
2023-03-17T03:43:13.017Z,21.90
2023-03-17T03:45:48.486Z,21.10
2023-03-17T03:48:15.630Z,19.40
2023-03-17T03:50:42.530Z,19.00
2023-03-17T03:53:09.946Z,16.60
2023-03-17T03:55:37.138Z,14.70
2023-03-17T03:58:03.880Z,13.70
2023-03-17T04:00:30.844Z,12.40
2023-03-17T04:02:57.921Z,11.30
2023-03-17T04:05:24.949Z,9.90
2023-03-17T04:07:51.833Z,8.30
2023-03-17T04:10:18.700Z,6.60
2023-03-17T04:12:46.786Z,4.90
2023-03-17T04:15:18.488Z,3.20
2023-03-17T04:17:46.484Z,2.30
2023-03-17T04:20:15.791Z,1.20
2023-03-17T04:22:43.265Z,1.00
2023-03-17T04:25:12.290Z,1.00
2023-03-17T04:27:39.076Z,1.00
2023-03-17T04:30:06.899Z,2.70
2023-03-17T04:32:33.651Z,3.00
2023-03-17T04:35:00.479Z,5.50
2023-03-17T04:37:27.277Z,4.20
2023-03-17T04:39:55.810Z,5.50
2023-03-17T04:42:22.658Z,7.20
2023-03-17T04:44:49.575Z,4.30
2023-03-17T04:47:16.639Z,2.90
2023-03-17T04:49:43.490Z,1.00
2023-03-17T04:52:10.274Z,2.30
2023-03-17T04:54:37.180Z,1.90
2023-03-17T04:57:04.137Z,2.50
2023-03-17T04:59:31.001Z,3.70
2023-03-17T05:01:57.820Z,4.40
2023-03-17T05:04:31.742Z,5.10
2023-03-17T05:07:00.836Z,5.60
2023-03-17T05:09:28.657Z,7.20
2023-03-17T05:11:56.174Z,6.30
2023-03-17T05:14:23.077Z,6.10
2023-03-17T05:16:50.729Z,7.10
2023-03-17T05:19:18.396Z,7.40
2023-03-17T05:21:45.463Z,9.50
2023-03-17T05:24:12.655Z,10.70
2023-03-17T05:26:40.048Z,9.50
2023-03-17T05:29:07.198Z,9.20
2023-03-17T05:31:34.052Z,7.70
2023-03-17T05:34:01.131Z,6.80
2023-03-17T05:36:28.153Z,8.50
2023-03-17T05:38:54.854Z,7.10
2023-03-17T05:41:21.765Z,6.70
2023-03-17T05:43:48.525Z,5.80
2023-03-17T05:46:15.669Z,9.40
2023-03-17T05:48:42.445Z,2.60
2023-03-17T05:51:09.301Z,1.10
2023-03-17T05:53:36.354Z,1.00
2023-03-17T05:56:04.004Z,1.00
2023-03-17T05:58:30.833Z,1.00
2023-03-17T06:00:58.184Z,1.00
2023-03-17T06:03:25.472Z,1.00
2023-03-17T06:05:52.276Z,1.00
2023-03-17T06:08:19.507Z,1.00
2023-03-17T06:10:47.638Z,1.00
2023-03-17T06:13:15.405Z,92.30
2023-03-17T06:15:43.166Z,91.90
2023-03-17T06:18:10.078Z,90.70
2023-03-17T06:20:37.224Z,90.60
2023-03-17T06:23:05.730Z,99.90
2023-03-17T06:25:34.814Z,38.90
2023-03-17T06:28:03.910Z,1.00
2023-03-17T06:30:32.821Z,1.00
2023-03-17T06:33:00.260Z,1.00
2023-03-17T06:35:27.551Z,1.00
2023-03-17T06:37:54.744Z,99.90
2023-03-17T06:40:21.617Z,99.90
2023-03-17T06:42:48.434Z,99.90
2023-03-17T06:45:16.016Z,99.90
2023-03-17T06:47:42.867Z,99.90
2023-03-17T06:50:11.388Z,1.00
2023-03-17T06:52:39.244Z,1.00
2023-03-17T06:55:07.317Z,1.00
2023-03-17T06:57:34.736Z,99.90
2023-03-17T07:00:01.584Z,99.90
2023-03-17T07:02:28.309Z,99.90
2023-03-17T07:04:57.743Z,99.90
2023-03-17T07:07:25.176Z,92.40
2023-03-17T07:09:52.813Z,91.70
2023-03-17T07:12:20.153Z,89.40
2023-03-17T07:14:47.149Z,85.40
2023-03-17T07:17:14.909Z,83.10
2023-03-17T07:19:42.396Z,81.20
2023-03-17T07:22:11.874Z,79.30
2023-03-17T07:24:39.054Z,75.70
2023-03-17T07:27:06.204Z,75.20
2023-03-17T07:29:34.107Z,73.70
2023-03-17T07:32:01.394Z,71.50
2023-03-17T07:34:28.890Z,69.80
2023-03-17T07:36:55.637Z,67.90
2023-03-17T07:39:22.592Z,68.40
2023-03-17T07:41:55.070Z,67.50
2023-03-17T07:44:23.500Z,68.00
2023-03-17T07:46:51.521Z,67.50
2023-03-17T07:49:25.170Z,66.50
2023-03-17T07:52:01.116Z,65.20
2023-03-17T07:54:29.176Z,64.20
2023-03-17T07:56:56.398Z,63.40
2023-03-17T07:59:23.596Z,61.40
2023-03-17T08:01:50.750Z,59.30
2023-03-17T08:04:17.648Z,58.40
2023-03-17T08:06:46.546Z,56.10
2023-03-17T08:09:13.460Z,55.80
2023-03-17T08:11:40.344Z,55.70
2023-03-17T08:14:07.806Z,55.90
2023-03-17T08:16:34.565Z,55.40
2023-03-17T08:19:03.912Z,55.70
2023-03-17T08:21:31.368Z,54.10
2023-03-17T08:23:58.173Z,54.20
2023-03-17T08:26:25.478Z,52.20
2023-03-17T08:28:52.324Z,52.60
2023-03-17T08:31:21.632Z,52.10
2023-03-17T08:33:53.964Z,52.00
2023-03-17T08:36:21.697Z,50.30
2023-03-17T08:38:48.819Z,50.50
2023-03-17T08:41:19.411Z,50.00
2023-03-17T08:43:47.188Z,50.30
2023-03-17T08:46:23.384Z,50.40
2023-03-17T08:48:51.852Z,49.60
2023-03-17T08:51:22.873Z,49.70
2023-03-17T08:53:52.329Z,49.40
2023-03-17T08:56:19.791Z,50.00
2023-03-17T08:58:47.665Z,49.80
2023-03-17T09:01:15.742Z,50.20
2023-03-17T09:03:43.330Z,50.60
2023-03-17T09:06:12.225Z,50.60
2023-03-17T09:08:44.524Z,51.20
2023-03-17T09:11:13.999Z,51.30
2023-03-17T09:13:41.557Z,50.60
2023-03-17T09:16:08.920Z,50.50
2023-03-17T09:18:35.961Z,50.70
2023-03-17T09:21:03.589Z,49.40
2023-03-17T09:23:37.167Z,49.40
2023-03-17T09:26:04.202Z,48.40
2023-03-17T09:28:31.839Z,49.90
2023-03-17T09:31:05.207Z,49.00
2023-03-17T09:33:32.170Z,48.30
2023-03-17T09:35:59.114Z,48.60
2023-03-17T09:38:27.493Z,47.30
2023-03-17T09:41:16.310Z,47.40
2023-03-17T09:44:18.107Z,48.10
2023-03-17T09:47:04.228Z,47.40
2023-03-17T09:49:46.709Z,47.50
2023-03-17T09:52:31.725Z,48.70
2023-03-17T09:55:00.143Z,48.90
2023-03-17T09:57:32.394Z,48.70
2023-03-17T10:00:22.892Z,49.20
2023-03-17T10:02:49.640Z,48.80
2023-03-17T10:05:21.707Z,49.20
2023-03-17T10:08:30.093Z,49.10
2023-03-17T10:11:01.387Z,48.80
2023-03-17T10:14:05.108Z,49.30
2023-03-17T10:17:05.838Z,49.00
2023-03-17T10:20:00.175Z,49.60
2023-03-17T10:22:45.239Z,49.70
2023-03-17T10:25:17.048Z,50.10
2023-03-17T10:28:08.773Z,51.10
2023-03-17T10:30:35.961Z,50.90
2023-03-17T10:33:06.940Z,51.20
2023-03-17T10:35:36.515Z,49.70
2023-03-17T10:38:19.757Z,50.60
2023-03-17T10:40:56.390Z,50.10
2023-03-17T10:43:27.736Z,49.10
2023-03-17T10:46:06.371Z,49.90
2023-03-17T10:48:38.655Z,49.80
2023-03-17T10:51:10.122Z,50.00
2023-03-17T10:53:39.253Z,49.10
2023-03-17T10:56:23.665Z,49.10
2023-03-17T10:58:52.498Z,49.70
2023-03-17T11:01:43.874Z,50.00
2023-03-17T11:04:31.070Z,50.00
2023-03-17T11:07:00.299Z,50.10
2023-03-17T11:09:30.376Z,50.60
2023-03-17T11:12:27.721Z,50.30
2023-03-17T11:15:03.982Z,50.30
2023-03-17T11:17:36.504Z,50.40
2023-03-17T11:20:17.861Z,50.60
2023-03-17T11:23:09.060Z,51.00
2023-03-17T11:25:42.356Z,51.20
2023-03-17T11:28:35.219Z,50.60
2023-03-17T11:31:15.679Z,50.90
2023-03-17T11:34:25.257Z,50.90
2023-03-17T11:37:10.117Z,50.30
2023-03-17T11:39:55.396Z,50.10
2023-03-17T11:42:34.656Z,50.70
2023-03-17T11:45:14.547Z,51.00
2023-03-17T11:48:14.705Z,50.40
2023-03-17T11:50:51.559Z,52.00
2023-03-17T11:53:37.014Z,51.00
2023-03-17T11:56:19.035Z,50.70
2023-03-17T11:58:52.549Z,50.60
2023-03-17T12:01:27.170Z,50.30
2023-03-17T12:04:23.035Z,50.30
2023-03-17T12:06:59.247Z,50.10
2023-03-17T12:09:34.478Z,50.60
2023-03-17T12:12:03.839Z,51.10
2023-03-17T12:14:48.785Z,51.50
2023-03-17T12:17:33.863Z,50.50
2023-03-17T12:20:18.359Z,50.60
2023-03-17T12:22:56.973Z,51.60
2023-03-17T12:26:06.790Z,50.80
2023-03-17T12:28:44.032Z,50.60
2023-03-17T12:31:19.728Z,51.00
2023-03-17T12:34:05.343Z,52.20
2023-03-17T12:36:34.358Z,50.90
2023-03-17T12:39:09.217Z,51.00
2023-03-17T12:41:56.811Z,51.50
2023-03-17T12:44:39.148Z,51.70
2023-03-17T12:47:36.272Z,52.20
2023-03-17T12:50:35.850Z,53.00
2023-03-17T12:53:24.446Z,51.80
2023-03-17T12:55:53.279Z,51.90
2023-03-17T12:58:29.205Z,52.00
2023-03-17T13:01:07.213Z,52.30
2023-03-17T13:03:37.047Z,52.70
2023-03-17T13:06:10.309Z,52.20
2023-03-17T13:08:41.214Z,52.20
2023-03-17T13:11:17.822Z,53.00
2023-03-17T13:13:53.698Z,52.60
2023-03-17T13:16:38.147Z,52.20
2023-03-17T13:19:23.805Z,53.00
2023-03-17T13:22:00.522Z,52.00
2023-03-17T13:24:51.000Z,52.30
2023-03-17T13:27:33.043Z,53.40
2023-03-17T13:30:25.745Z,53.70
2023-03-17T13:33:25.567Z,53.30
2023-03-17T13:36:09.470Z,53.00
2023-03-17T13:39:18.414Z,52.90
2023-03-17T13:41:46.387Z,53.50
2023-03-17T13:44:18.989Z,53.60
2023-03-17T13:46:48.220Z,53.70
2023-03-17T13:49:28.502Z,53.30
2023-03-17T13:52:07.541Z,53.60
2023-03-17T13:54:41.188Z,53.30
2023-03-17T13:57:26.289Z,53.70
2023-03-17T14:00:13.821Z,54.10
2023-03-17T14:02:42.138Z,53.60
2023-03-17T14:05:17.501Z,53.60
2023-03-17T14:07:50.185Z,54.00
2023-03-17T14:10:21.253Z,54.00
2023-03-17T14:12:54.885Z,53.70
2023-03-17T14:15:31.109Z,53.60
2023-03-17T14:18:04.384Z,54.40
2023-03-17T14:20:31.316Z,54.60
2023-03-17T14:23:03.858Z,54.40
2023-03-17T14:25:39.033Z,54.10
2023-03-17T14:28:16.428Z,54.80
2023-03-17T14:30:52.830Z,55.20
2023-03-17T14:33:41.047Z,54.90
2023-03-17T14:36:14.260Z,55.20
2023-03-17T14:38:49.506Z,55.30
2023-03-17T14:41:16.473Z,55.70
2023-03-17T14:43:44.268Z,55.90
2023-03-17T14:46:16.617Z,56.10
2023-03-17T14:48:46.480Z,56.10
2023-03-17T14:51:37.787Z,55.50
2023-03-17T14:54:12.695Z,55.00
2023-03-17T14:57:03.271Z,55.10
2023-03-17T14:59:34.152Z,55.10
2023-03-17T15:02:21.664Z,55.30
2023-03-17T15:05:06.630Z,55.90
2023-03-17T15:07:43.216Z,55.60
2023-03-17T15:10:22.354Z,55.70
2023-03-17T15:12:49.358Z,56.00
2023-03-17T15:15:26.479Z,56.20
2023-03-17T15:17:59.067Z,56.50
2023-03-17T15:20:25.995Z,56.40
2023-03-17T15:22:57.841Z,56.80
2023-03-17T15:25:35.155Z,56.60
2023-03-17T15:28:01.859Z,56.80
2023-03-17T15:30:37.440Z,57.10
2023-03-17T15:33:23.165Z,57.20
2023-03-17T15:35:51.183Z,54.90
2023-03-17T15:38:18.063Z,1.00
2023-03-17T15:40:45.668Z,1.00
2023-03-17T15:43:18.181Z,1.00
2023-03-17T15:45:45.338Z,1.00
2023-03-17T15:48:26.345Z,42.10
2023-03-17T15:50:55.497Z,1.00
2023-03-17T15:53:22.912Z,56.70
2023-03-17T15:55:49.765Z,56.90
2023-03-17T15:58:16.542Z,58.00
2023-03-17T16:00:46.207Z,57.20
2023-03-17T16:03:22.567Z,58.00
2023-03-17T16:05:49.312Z,58.20
2023-03-17T16:08:18.076Z,58.00
2023-03-17T16:10:45.371Z,58.00
2023-03-17T16:13:12.470Z,58.20
2023-03-17T16:15:42.541Z,58.30
2023-03-17T16:18:19.260Z,58.30
2023-03-17T16:20:49.179Z,58.00
2023-03-17T16:23:26.257Z,58.00
2023-03-17T16:25:59.299Z,58.00
2023-03-17T16:28:32.536Z,57.60
2023-03-17T16:31:00.585Z,58.00
2023-03-17T16:33:32.381Z,57.70
2023-03-17T16:36:01.026Z,57.60
2023-03-17T16:38:33.015Z,57.20
2023-03-17T16:41:16.782Z,57.40
2023-03-17T16:43:45.748Z,57.60
2023-03-17T16:46:13.478Z,57.70
2023-03-17T16:48:40.296Z,57.80
2023-03-17T16:51:07.539Z,58.10
2023-03-17T16:53:34.961Z,58.00
2023-03-17T16:56:02.195Z,58.20
2023-03-17T16:58:36.770Z,1.00
2023-03-17T17:01:09.601Z,10.70
2023-03-17T17:03:37.929Z,99.90
2023-03-17T17:06:07.090Z,99.90
2023-03-17T17:08:33.839Z,99.90
2023-03-17T17:11:00.630Z,1.00
2023-03-17T17:13:27.426Z,1.00
2023-03-17T17:15:55.783Z,1.00
2023-03-17T17:18:24.413Z,1.00
2023-03-17T17:20:52.777Z,1.00
2023-03-17T17:23:25.791Z,1.00
2023-03-17T17:25:54.193Z,28.60
2023-03-17T17:28:23.915Z,99.90
2023-03-17T17:30:52.060Z,99.90
2023-03-17T17:33:20.086Z,1.00
2023-03-17T17:35:48.043Z,1.00
2023-03-17T17:38:33.126Z,41.80
2023-03-17T17:41:05.817Z,1.00
2023-03-17T17:43:33.242Z,1.00
2023-03-17T17:46:00.314Z,1.00
2023-03-17T17:48:28.011Z,99.90
2023-03-17T17:50:56.365Z,99.90
2023-03-17T17:53:23.564Z,1.00
2023-03-17T17:55:51.567Z,1.00
2023-03-17T17:58:25.755Z,1.00
2023-03-17T18:00:55.085Z,1.00
2023-03-17T18:03:25.128Z,1.00
2023-03-17T18:05:53.306Z,99.90
2023-03-17T18:08:20.830Z,1.00
2023-03-17T18:10:48.264Z,1.00
2023-03-17T18:13:16.257Z,1.00
2023-03-17T18:15:43.062Z,1.00
2023-03-17T18:18:09.921Z,41.50
2023-03-17T18:20:36.887Z,99.90
2023-03-17T18:23:03.842Z,65.70
2023-03-17T18:25:30.810Z,1.00
2023-03-17T18:27:57.624Z,1.00
2023-03-17T18:30:27.134Z,79.60
2023-03-17T18:32:57.222Z,99.90
2023-03-17T18:35:27.053Z,99.90
2023-03-17T18:37:55.443Z,1.00
2023-03-17T18:40:22.206Z,13.50
2023-03-17T18:42:49.040Z,99.90
2023-03-17T18:45:16.139Z,99.90
2023-03-17T18:47:42.915Z,1.00
2023-03-17T18:50:12.721Z,99.90
2023-03-17T18:52:41.659Z,1.00
2023-03-17T18:55:11.175Z,1.00
2023-03-17T18:57:37.975Z,1.00
2023-03-17T19:00:06.562Z,1.00
2023-03-17T19:02:33.381Z,1.00
2023-03-17T19:05:00.872Z,99.90
2023-03-17T19:07:27.756Z,99.90
2023-03-17T19:09:54.879Z,99.90
2023-03-17T19:12:21.720Z,1.00
2023-03-17T19:14:48.737Z,56.20
2023-03-17T19:17:15.518Z,31.30
2023-03-17T19:19:42.258Z,92.60
2023-03-17T19:22:10.873Z,99.90
2023-03-17T19:24:37.939Z,99.90
2023-03-17T19:27:05.592Z,1.00
2023-03-17T19:29:33.405Z,99.90
2023-03-17T19:32:00.507Z,99.90
2023-03-17T19:34:27.502Z,1.00
2023-03-17T19:36:54.322Z,99.90
2023-03-17T19:39:21.690Z,99.90
2023-03-17T19:41:52.683Z,99.90
2023-03-17T19:44:19.443Z,99.90
2023-03-17T19:46:46.169Z,99.90
2023-03-17T19:49:12.895Z,1.00
2023-03-17T19:51:41.786Z,99.90
2023-03-17T19:54:12.779Z,1.00
2023-03-17T19:56:39.774Z,1.00
2023-03-17T19:59:07.417Z,1.00
2023-03-17T20:01:34.447Z,1.00
2023-03-17T20:04:01.501Z,1.00
2023-03-17T20:06:29.603Z,1.00
2023-03-17T20:08:56.361Z,1.00
2023-03-17T20:11:23.673Z,1.00
2023-03-17T20:13:50.385Z,1.00
2023-03-17T20:16:17.287Z,1.00
2023-03-17T20:18:44.140Z,1.00
2023-03-17T20:21:13.594Z,1.00
2023-03-17T20:23:40.423Z,1.00
2023-03-17T20:26:08.341Z,1.00
2023-03-17T20:28:35.675Z,1.00
2023-03-17T20:31:04.373Z,1.00
2023-03-17T20:33:34.003Z,1.00
2023-03-17T20:36:01.801Z,1.00
2023-03-17T20:38:29.017Z,1.00
2023-03-17T20:41:16.037Z,1.00
2023-03-17T20:43:43.484Z,1.00
2023-03-17T20:46:16.996Z,1.00
2023-03-17T20:48:46.547Z,1.00
2023-03-17T20:51:16.484Z,1.00
2023-03-17T20:53:48.077Z,1.00
2023-03-17T20:56:20.245Z,1.00
2023-03-17T20:58:48.416Z,1.00
2023-03-17T21:01:20.455Z,1.00
2023-03-17T21:03:48.468Z,1.00
2023-03-17T21:06:15.920Z,1.00
2023-03-17T21:08:42.658Z,1.00
2023-03-17T21:11:14.926Z,1.00
2023-03-17T21:13:42.787Z,1.00
2023-03-17T21:16:14.907Z,1.00
2023-03-17T21:18:41.783Z,1.00
2023-03-17T21:21:08.623Z,1.00
2023-03-17T21:23:35.433Z,1.00
2023-03-17T21:26:02.320Z,1.00
2023-03-17T21:28:29.208Z,1.00
2023-03-17T21:30:56.236Z,1.00
2023-03-17T21:33:23.042Z,1.00
2023-03-17T21:35:50.012Z,1.00
2023-03-17T21:38:16.713Z,1.00
2023-03-17T21:40:43.466Z,1.00
2023-03-17T21:43:10.862Z,1.00
2023-03-17T21:45:37.924Z,1.00
2023-03-17T21:48:04.826Z,1.00
2023-03-17T21:50:32.715Z,1.00
2023-03-17T21:52:59.645Z,1.00
2023-03-17T21:55:27.195Z,1.00
2023-03-17T21:57:54.004Z,1.00
2023-03-17T22:00:20.979Z,1.00
2023-03-17T22:02:47.746Z,1.00
2023-03-17T22:05:14.481Z,1.00
2023-03-17T22:07:41.239Z,1.00
2023-03-17T22:10:08.866Z,2.00
2023-03-17T22:12:36.519Z,2.90
2023-03-17T22:15:04.376Z,9.80
2023-03-17T22:17:31.680Z,8.30
2023-03-17T22:19:58.487Z,6.70
2023-03-17T22:22:25.297Z,8.60
2023-03-17T22:24:52.114Z,12.90
2023-03-17T22:27:19.047Z,12.80
2023-03-17T22:29:46.643Z,14.00
2023-03-17T22:32:13.727Z,16.20
2023-03-17T22:34:40.625Z,16.40
2023-03-17T22:37:07.661Z,16.50
2023-03-17T22:39:34.701Z,16.90
2023-03-17T22:42:02.099Z,13.80
2023-03-17T22:44:28.959Z,11.60
2023-03-17T22:46:56.173Z,13.90
2023-03-17T22:49:23.724Z,12.60
2023-03-17T22:51:50.595Z,15.00
2023-03-17T22:54:18.666Z,18.20
2023-03-17T22:56:45.905Z,20.00
2023-03-17T22:59:12.660Z,23.00
2023-03-17T23:01:39.649Z,22.90
2023-03-17T23:04:06.976Z,24.20
2023-03-17T23:06:35.255Z,27.00
2023-03-17T23:09:02.731Z,27.80
2023-03-17T23:11:29.622Z,29.70
2023-03-17T23:13:56.556Z,30.30
2023-03-17T23:16:23.368Z,33.30
2023-03-17T23:18:50.956Z,35.80
2023-03-17T23:21:30.812Z,38.10
2023-03-17T23:23:57.907Z,37.90
2023-03-17T23:26:24.752Z,43.00
2023-03-17T23:28:51.872Z,34.20
2023-03-17T23:31:19.591Z,35.50
2023-03-17T23:33:49.977Z,37.90
2023-03-17T23:36:17.564Z,40.60
2023-03-17T23:38:45.542Z,40.30
2023-03-17T23:41:13.064Z,40.30
2023-03-17T23:43:40.485Z,41.40
2023-03-17T23:46:07.314Z,41.50
2023-03-17T23:48:34.035Z,42.70
2023-03-17T23:51:01.192Z,47.20
2023-03-17T23:53:28.407Z,46.70
2023-03-17T23:55:55.467Z,44.30
2023-03-17T23:58:22.942Z,44.20
